Time;durP1;ratioP1;P1;durP2;ratioP2;P2;SDS_P1;SDS_P2;PMS_P1;PMS_P2;Temp;Humidity;BMP_temperature;BMP_pressure;BME280_temperature;BME280_humidity;BME280_pressure;Samples;Min_cycle;Max_cycle;Signal;HPM_P1;HPM_P2
2023/06/18 00:00:08;;;;;;;;;;;18.80;81.50;;;-151.14;100.00;62537.16;4994479;28;19928;-89
2023/06/18 00:02:36;;;;;;;;;;;18.80;81.40;;;-151.14;100.00;62537.16;4993522;28;20232;-88
2023/06/18 00:05:05;;;;;;;;;;;18.80;81.40;;;-151.14;100.00;62537.16;4997771;28;19928;-89
2023/06/18 00:07:33;;;;;;;;;;;18.80;81.40;;;-151.14;100.00;62537.16;4981463;28;20144;-88
2023/06/18 00:10:03;;;;;;;;;;;18.80;81.40;;;18.08;100.00;62537.16;4997573;28;19935;-88
2023/06/18 00:12:31;;;;;;;;;;;18.80;81.40;;;18.03;100.00;62537.16;4981296;28;19928;-88
2023/06/18 00:14:59;;;;;;;;;;;18.80;81.40;;;18.08;100.00;62537.16;4981271;28;19922;-89
2023/06/18 00:17:29;;;;;;;;;;;18.80;81.40;;;18.04;100.00;62537.16;4981899;28;19922;-88
2023/06/18 00:19:57;;;;;;;;;;;18.80;81.40;;;-151.14;100.00;62537.16;4981215;28;19928;-88
2023/06/18 00:22:26;;;;;;;;;;;18.80;81.30;;;-151.14;100.00;62537.16;4997364;28;19929;-89
2023/06/18 00:24:55;;;;;;;;;;;18.80;81.40;;;-151.14;100.00;62537.16;4981001;28;19928;-88
2023/06/18 00:27:23;;;;;;;;;;;18.80;81.30;;;18.08;100.00;62537.16;4981238;28;19922;-89
2023/06/18 00:29:51;;;;;;;;;;;18.80;81.40;;;-151.14;100.00;62537.16;4981150;28;19922;-89
2023/06/18 00:32:21;;;;;;;;;;;18.80;81.40;;;-151.14;100.00;62537.16;4980950;28;19922;-88
2023/06/18 00:34:53;;;;;;;;;;;18.80;81.40;;;18.08;100.00;62537.16;4980881;28;19922;-88
2023/06/18 00:37:21;;;;;;;;;;;18.80;81.40;;;18.08;100.00;62537.16;4997363;28;19927;-88
2023/06/18 00:39:49;;;;;;;;;;;18.80;81.40;;;-151.14;100.00;62537.16;4980984;28;20223;-88
2023/06/18 00:42:18;;;;;;;;;;;18.80;81.40;;;18.08;100.00;62537.16;4980755;28;19921;-89
2023/06/18 00:44:46;;;;;;;;;;;18.80;81.40;;;-151.14;100.00;62537.16;4980932;28;19921;-88
2023/06/18 00:47:15;;;;;;;;;;;18.80;81.40;;;-151.14;100.00;62537.16;4997027;28;20124;-88
2023/06/18 00:49:43;;;;;;;;;;;18.80;81.40;;;-151.14;100.00;62537.16;4977470;28;20214;-88
2023/06/18 00:52:13;;;;;;;;;;;18.80;81.40;;;-151.14;100.00;62537.16;4977643;28;19922;-88
2023/06/18 00:54:42;;;;;;;;;;;18.80;81.40;;;18.03;100.00;62537.16;4977422;28;19922;-89
2023/06/18 00:57:13;;;;;;;;;;;18.80;81.40;;;-151.14;100.00;62537.16;4961341;28;19928;-88
2023/06/18 00:59:42;;;;;;;;;;;18.80;81.40;;;-151.14;100.00;62537.16;4993796;28;19922;-89
2023/06/18 01:02:10;;;;;;;;;;;18.80;81.50;;;-151.14;100.00;62537.16;4993516;28;19974;-88
2023/06/18 01:04:39;;;;;;;;;;;18.80;81.50;;;18.16;100.00;62537.16;4977242;28;19928;-88
2023/06/18 01:07:12;;;;;;;;;;;18.80;81.50;;;-151.14;100.00;62537.16;4961479;28;19921;-88
2023/06/18 01:09:42;;;;;;;;;;;18.80;81.60;;;18.08;100.00;62537.16;4977219;28;20075;-89
2023/06/18 01:12:10;;;;;;;;;;;18.80;81.50;;;-151.14;100.00;62537.16;4993403;28;19928;-89
2023/06/18 01:14:39;;;;;;;;;;;18.80;81.50;;;-151.14;100.00;62537.16;4976901;28;19928;-89
2023/06/18 01:17:08;;;;;;;;;;;18.80;81.50;;;-151.14;100.00;62537.16;4973477;28;19922;-88
2023/06/18 01:19:45;;;;;;;;;;;18.80;81.50;;;187.61;100.00;62537.16;4977296;28;19929;-89
2023/06/18 01:22:21;;;;;;;;;;;18.80;81.40;;;-151.14;100.00;62537.16;4960959;28;19928;-88
2023/06/18 01:24:51;;;;;;;;;;;18.80;81.50;;;18.08;100.00;62537.16;4961138;28;19922;-88
2023/06/18 01:27:21;;;;;;;;;;;18.80;81.50;;;-151.14;100.00;62537.16;4961045;28;19922;-88
2023/06/18 01:29:50;;;;;;;;;;;18.80;81.50;;;18.08;100.00;62537.16;4993163;28;19922;-88
2023/06/18 01:32:18;;;;;;;;;;;18.80;81.50;;;18.08;100.00;62537.16;4960805;28;19936;-88
2023/06/18 01:34:47;;;;;;;;;;;18.80;81.50;;;-151.14;100.00;62537.16;4967953;28;20237;-88
2023/06/18 01:37:20;;;;;;;;;;;18.80;81.50;;;-151.14;100.00;62537.16;4976678;28;19922;-89
2023/06/18 01:39:53;;;;;;;;;;;18.80;81.50;;;-151.14;100.00;62537.16;4976607;28;19922;-88
2023/06/18 01:42:22;;;;;;;;;;;18.80;81.50;;;-151.14;100.00;62537.16;4992149;28;19932;-89
2023/06/18 01:44:51;;;;;;;;;;;18.80;81.50;;;18.08;100.00;62537.16;4976282;28;20225;-89
2023/06/18 01:47:20;;;;;;;;;;;18.80;81.50;;;-151.14;100.00;62537.16;4976254;28;19922;-89
2023/06/18 01:49:48;;;;;;;;;;;18.80;81.50;;;-151.14;100.00;62537.16;4976262;28;19922;-88
2023/06/18 01:52:17;;;;;;;;;;;18.80;81.50;;;-151.14;100.00;62537.16;4992021;28;19929;-89
2023/06/18 01:54:46;;;;;;;;;;;18.80;81.50;;;18.02;100.00;62537.16;4976065;28;19921;-89
2023/06/18 01:57:16;;;;;;;;;;;18.80;81.50;;;-151.14;100.00;62537.16;4976155;28;19936;-88
2023/06/18 01:59:44;;;;;;;;;;;18.80;81.50;;;-151.14;100.00;62537.16;4976350;28;19928;-89
2023/06/18 02:02:12;;;;;;;;;;;18.80;81.50;;;18.08;100.00;62537.16;4991728;28;19928;-88
2023/06/18 02:04:43;;;;;;;;;;;18.80;81.50;;;18.04;100.00;62537.16;4976019;28;19926;-89
2023/06/18 02:07:12;;;;;;;;;;;18.80;81.50;;;-151.14;100.00;62537.16;4993286;28;19928;-88
2023/06/18 02:09:40;;;;;;;;;;;18.80;81.50;;;18.08;100.00;62537.16;4975983;28;19928;-89
2023/06/18 02:12:10;;;;;;;;;;;18.80;81.50;;;18.08;100.00;62537.16;4975643;28;19925;-89
2023/06/18 02:14:39;;;;;;;;;;;18.80;81.40;;;-151.14;100.00;62537.16;4975912;28;20235;-88
2023/06/18 02:17:07;;;;;;;;;;;18.80;81.40;;;-151.14;100.00;62537.16;4975747;28;19948;-89
2023/06/18 02:19:35;;;;;;;;;;;18.80;81.40;;;187.61;100.00;62537.16;4975993;28;19922;-89
2023/06/18 02:22:04;;;;;;;;;;;18.80;81.50;;;-151.14;100.00;62537.16;4992463;28;20210;-89
2023/06/18 02:24:32;;;;;;;;;;;18.80;81.40;;;18.08;100.00;62537.16;4975707;28;19922;-89
2023/06/18 02:27:00;;;;;;;;;;;18.80;81.40;;;18.08;100.00;62537.16;4974875;28;20117;-89
2023/06/18 02:29:28;;;;;;;;;;;18.80;81.40;;;-151.14;100.00;62537.16;4991938;28;19928;-89
2023/06/18 02:31:58;;;;;;;;;;;18.80;81.50;;;-151.14;100.00;62537.16;4974968;28;20217;-89
2023/06/18 02:34:27;;;;;;;;;;;18.80;81.40;;;18.08;100.00;62537.16;4991957;28;20239;-88
2023/06/18 02:36:55;;;;;;;;;;;18.80;81.40;;;18.01;100.00;62537.16;4991730;28;20099;-88
2023/06/18 02:39:23;;;;;;;;;;;18.80;81.50;;;-151.14;100.00;62537.16;4991816;28;19936;-89
2023/06/18 02:41:51;;;;;;;;;;;18.80;81.50;;;187.61;100.00;62537.16;4974349;28;19922;-89
2023/06/18 02:44:19;;;;;;;;;;;18.80;81.40;;;-151.14;100.00;62537.16;4974610;28;19922;-88
2023/06/18 02:46:47;;;;;;;;;;;18.80;81.50;;;-151.14;100.00;62537.16;4975515;28;19928;-89
2023/06/18 02:49:17;;;;;;;;;;;18.80;81.40;;;-151.14;100.00;62537.16;4975353;28;19922;-88
2023/06/18 02:51:45;;;;;;;;;;;18.80;81.50;;;-151.14;100.00;62537.16;4990787;28;19928;-89
2023/06/18 02:54:13;;;;;;;;;;;18.80;81.50;;;-151.14;100.00;62537.16;4975359;28;19929;-89
2023/06/18 02:56:42;;;;;;;;;;;18.80;81.50;;;18.08;100.00;62537.16;4975204;28;20091;-89
2023/06/18 02:59:10;;;;;;;;;;;18.80;81.50;;;18.08;100.00;62537.16;4975451;28;20146;-88
2023/06/18 03:01:38;;;;;;;;;;;18.80;81.50;;;-151.14;100.00;62537.16;4991034;28;19921;-89
2023/06/18 03:04:06;;;;;;;;;;;18.80;81.60;;;187.61;100.00;62537.16;4975070;28;19922;-90
2023/06/18 03:06:37;;;;;;;;;;;18.80;81.50;;;-151.14;100.00;62537.16;4975291;28;19928;-89
2023/06/18 03:09:05;;;;;;;;;;;18.80;81.50;;;-151.14;100.00;62537.16;4975418;28;19922;-89
2023/06/18 03:11:33;;;;;;;;;;;18.80;81.50;;;187.61;100.00;62537.16;4990706;28;19922;-89
2023/06/18 03:14:04;;;;;;;;;;;18.80;81.50;;;-151.14;100.00;62537.16;4975162;28;19921;-89
2023/06/18 03:16:33;;;;;;;;;;;18.80;81.50;;;-151.14;100.00;62537.16;4974986;28;19928;-90
2023/06/18 03:19:03;;;;;;;;;;;18.80;82.40;;;187.61;100.00;62537.16;4991316;28;19921;-89
2023/06/18 03:21:32;;;;;;;;;;;18.80;81.60;;;17.99;100.00;62537.16;4974404;28;19928;-89
2023/06/18 03:24:04;;;;;;;;;;;18.80;81.60;;;-151.14;100.00;62537.16;4974422;28;19928;-89
2023/06/18 03:26:36;;;;;;;;;;;18.80;81.70;;;-151.14;100.00;62537.16;4975059;28;19922;-90
2023/06/18 03:29:05;;;;;;;;;;;18.80;81.60;;;-151.14;100.00;62537.16;4974919;28;19922;-89
2023/06/18 03:31:34;;;;;;;;;;;18.80;81.70;;;-151.14;100.00;62537.16;4990531;28;19985;-89
2023/06/18 03:34:02;;;;;;;;;;;18.80;81.60;;;18.09;100.00;62537.16;4990745;28;19928;-89
2023/06/18 03:36:39;;;;;;;;;;;18.80;81.60;;;187.61;100.00;62537.16;4974776;28;19922;-89
2023/06/18 03:39:10;;;;;;;;;;;18.80;81.60;;;-151.14;100.00;62537.16;4978214;28;19921;-88
2023/06/18 03:41:39;;;;;;;;;;;18.80;81.70;;;-151.14;100.00;62537.16;4977574;28;19928;-89
2023/06/18 03:44:08;;;;;;;;;;;18.80;81.70;;;-151.14;100.00;62537.16;4994765;28;19922;-88
2023/06/18 03:46:36;;;;;;;;;;;18.80;81.80;;;17.97;100.00;62537.16;5010649;28;19928;-88
2023/06/18 03:49:04;;;;;;;;;;;18.80;81.80;;;-151.14;100.00;62537.16;4978145;28;19928;-89
2023/06/18 03:51:33;;;;;;;;;;;18.80;81.80;;;-151.14;100.00;62537.16;4977563;28;19921;-89
2023/06/18 03:54:01;;;;;;;;;;;18.80;81.70;;;-151.14;100.00;62537.16;4978092;28;19948;-89
2023/06/18 03:56:32;;;;;;;;;;;18.80;81.80;;;-151.14;100.00;62537.16;4978116;28;20214;-89
2023/06/18 03:59:00;;;;;;;;;;;18.80;81.70;;;-151.14;100.00;62537.16;4995331;28;20121;-89
2023/06/18 04:01:28;;;;;;;;;;;18.80;81.80;;;-151.14;100.00;62537.16;4977613;28;20223;-89
2023/06/18 04:03:57;;;;;;;;;;;18.80;81.70;;;-151.14;100.00;62537.16;4977907;28;19922;-88
2023/06/18 04:06:27;;;;;;;;;;;18.80;81.80;;;187.61;100.00;62537.16;4994159;28;19922;-89
2023/06/18 04:08:55;;;;;;;;;;;18.80;81.80;;;18.00;100.00;62537.16;4995048;28;19936;-89
2023/06/18 04:11:23;;;;;;;;;;;18.80;81.80;;;-151.14;100.00;62537.16;4977413;28;19928;-89
2023/06/18 04:13:52;;;;;;;;;;;18.80;81.80;;;17.98;100.00;62537.16;4977620;28;19932;-89
2023/06/18 04:16:20;;;;;;;;;;;18.80;81.80;;;17.98;100.00;62537.16;4993907;28;19922;-89
2023/06/18 04:18:48;;;;;;;;;;;18.80;81.80;;;-151.14;100.00;62537.16;4977731;28;19922;-88
2023/06/18 04:21:16;;;;;;;;;;;18.80;81.80;;;-151.14;100.00;62537.16;4977311;28;19929;-89
2023/06/18 04:23:44;;;;;;;;;;;18.80;81.80;;;-151.14;100.00;62537.16;4977405;28;19922;-87
2023/06/18 04:26:13;;;;;;;;;;;18.80;81.80;;;17.98;100.00;106994.31;4994013;28;20091;-89
2023/06/18 04:28:41;;;;;;;;;;;18.80;81.90;;;-151.14;100.00;62537.16;4993903;28;20217;-89
2023/06/18 04:31:11;;;;;;;;;;;18.80;81.90;;;-151.14;100.00;62537.16;4993177;28;19922;-89
2023/06/18 04:33:39;;;;;;;;;;;18.80;81.90;;;-151.14;100.00;62537.16;4979096;28;19928;-88
2023/06/18 04:36:07;;;;;;;;;;;18.80;81.90;;;-151.14;100.00;62537.16;4997022;28;19921;-88
2023/06/18 04:38:36;;;;;;;;;;;18.80;81.90;;;17.98;100.00;62537.16;5013112;28;19921;-88
2023/06/18 04:41:04;;;;;;;;;;;18.80;81.90;;;-151.14;100.00;62537.16;4996855;28;19921;-88
2023/06/18 04:43:33;;;;;;;;;;;18.80;82.00;;;17.97;100.00;83591.00;4980337;28;19922;-88
2023/06/18 04:46:01;;;;;;;;;;;18.80;81.90;;;-151.14;100.00;62537.16;4980617;28;20205;-89
2023/06/18 04:48:31;;;;;;;;;;;18.80;82.00;;;17.94;100.00;62537.16;4996379;28;19928;-89
2023/06/18 04:50:59;;;;;;;;;;;18.80;82.00;;;17.95;100.00;62537.16;5013863;28;20102;-89
2023/06/18 04:53:29;;;;;;;;;;;18.80;82.00;;;-151.14;100.00;62537.16;4996191;28;19922;-89
2023/06/18 04:55:57;;;;;;;;;;;18.80;82.10;;;-151.14;100.00;62537.16;4996656;28;19921;-89
2023/06/18 04:58:26;;;;;;;;;;;18.80;82.00;;;-151.14;100.00;62537.16;4980337;28;19921;-88
2023/06/18 05:00:55;;;;;;;;;;;18.80;82.00;;;-151.14;100.00;62537.16;4996713;28;19921;-89
2023/06/18 05:03:24;;;;;;;;;;;18.80;82.10;;;17.97;100.00;62537.16;4979502;28;19922;-89
2023/06/18 05:05:54;;;;;;;;;;;18.80;82.10;;;-151.14;100.00;62537.16;4980166;28;19976;-89
2023/06/18 05:08:23;;;;;;;;;;;18.80;82.00;;;17.95;100.00;62537.16;5012729;28;20116;-89
2023/06/18 05:10:52;;;;;;;;;;;18.80;82.00;;;17.96;100.00;62537.16;4996546;28;20120;-89
2023/06/18 05:13:21;;;;;;;;;;;18.80;82.00;;;-151.14;100.00;62537.16;4979509;28;19944;-89
2023/06/18 05:15:49;;;;;;;;;;;18.80;82.10;;;-151.14;100.00;62537.16;4980308;28;19928;-89
2023/06/18 05:18:17;;;;;;;;;;;18.80;82.10;;;17.97;100.00;62537.16;4996195;28;19922;-89
2023/06/18 05:20:45;;;;;;;;;;;18.80;82.20;;;-151.14;100.00;62537.16;4996247;28;19921;-89
2023/06/18 05:23:15;;;;;;;;;;;18.80;82.10;;;-151.14;100.00;62537.16;4979360;28;19921;-89
2023/06/18 05:25:43;;;;;;;;;;;18.80;82.10;;;17.99;100.00;83593.84;4979860;28;19921;-89
2023/06/18 05:28:11;;;;;;;;;;;18.80;82.10;;;-151.14;100.00;62537.16;4996041;28;20121;-91
2023/06/18 05:30:42;;;;;;;;;;;18.80;82.00;;;-151.14;100.00;62537.16;4996243;28;19928;-89
2023/06/18 05:33:10;;;;;;;;;;;18.80;82.10;;;-151.14;100.00;62537.16;4995411;28;20209;-89
2023/06/18 05:35:40;;;;;;;;;;;18.80;82.10;;;-151.14;100.00;62537.16;4979695;28;19922;-89
2023/06/18 05:38:08;;;;;;;;;;;18.80;82.20;;;-151.14;100.00;62537.16;4979597;28;19927;-89
2023/06/18 05:40:38;;;;;;;;;;;18.80;82.10;;;-151.14;100.00;62537.16;4979864;28;20243;-89
2023/06/18 05:43:07;;;;;;;;;;;18.80;82.10;;;-151.14;100.00;62537.16;4979035;28;19928;-89
2023/06/18 05:45:43;;;;;;;;;;;18.80;82.10;;;-151.14;100.00;62537.16;4979810;28;20120;-88
2023/06/18 05:48:14;;;;;;;;;;;18.80;82.10;;;-151.14;100.00;62537.16;4979551;28;19928;-89
2023/06/18 05:51:05;;;;;;;;;;;18.80;82.00;;;18.01;100.00;62537.16;4990318;28;19928;-89
2023/06/18 05:53:35;;;;;;;;;;;18.80;82.10;;;-151.14;100.00;62537.16;4995245;28;19927;-89
2023/06/18 05:56:05;;;;;;;;;;;18.80;82.10;;;-151.14;100.00;62537.16;4996089;28;20121;-88
2023/06/18 05:58:34;;;;;;;;;;;18.80;82.10;;;-151.14;100.00;62537.16;4995722;28;19927;-89
2023/06/18 06:01:02;;;;;;;;;;;18.80;82.20;;;-151.14;100.00;62537.16;4978190;28;19943;-89
2023/06/18 06:03:30;;;;;;;;;;;18.80;82.30;;;18.03;100.00;83605.56;4978750;28;19974;-89
2023/06/18 06:06:01;;;;;;;;;;;18.80;82.20;;;18.08;100.00;62537.16;4979399;28;19928;-88
2023/06/18 06:08:29;;;;;;;;;;;18.80;82.10;;;-151.14;100.00;62537.16;4979197;28;19921;-89
2023/06/18 06:10:58;;;;;;;;;;;18.80;82.10;;;39.25;100.00;62537.16;4979338;28;19921;-89
2023/06/18 06:13:28;;;;;;;;;;;18.80;81.90;;;18.07;100.00;106994.31;4978793;28;19928;-88
2023/06/18 06:16:02;;;;;;;;;;;18.90;82.10;;;-151.14;100.00;62537.16;4995339;28;19927;-89
2023/06/18 06:18:30;;;;;;;;;;;18.90;82.00;;;39.25;100.00;62537.16;4995284;28;20209;-89
2023/06/18 06:20:58;;;;;;;;;;;18.90;82.10;;;-151.14;100.00;62537.16;4979186;28;19927;-88
2023/06/18 06:23:26;;;;;;;;;;;18.90;82.40;;;-151.14;100.00;62537.16;4978649;28;19928;-89
2023/06/18 06:25:54;;;;;;;;;;;18.90;82.20;;;-151.14;100.00;62537.16;4995076;28;19922;-88
2023/06/18 06:28:23;;;;;;;;;;;18.90;82.20;;;;;;4978912;28;19921;-89
2023/06/18 06:30:53;;;;;;;;;;;18.90;82.10;;;-151.14;100.00;62537.16;4978917;28;19921;-88
2023/06/18 06:33:21;;;;;;;;;;;18.90;82.10;;;-151.14;100.00;62537.16;4978574;28;19928;-89
2023/06/18 06:35:49;;;;;;;;;;;18.90;82.50;;;-151.14;100.00;62537.16;4978732;28;19948;-88
2023/06/18 06:38:18;;;;;;;;;;;18.90;82.40;;;18.13;100.00;62537.16;4979004;28;19921;-88
2023/06/18 06:40:46;;;;;;;;;;;18.90;82.40;;;-151.14;100.00;62537.16;4978615;28;20221;-88
2023/06/18 06:47:04;;;;;;;;;;;18.90;82.30;;;-151.14;100.00;62537.16;4976366;28;20209;-89
2023/06/18 06:49:49;;;;;;;;;;;18.90;82.30;;;-151.14;100.00;62537.16;4975581;28;19928;-88
2023/06/18 06:52:28;;;;;;;;;;;18.90;82.30;;;-151.14;100.00;62537.16;4975111;28;19922;-89
2023/06/18 06:54:56;;;;;;;;;;;18.90;83.30;;;-151.14;100.00;62537.16;4959133;28;20214;-88
2023/06/18 06:57:24;;;;;;;;;;;18.90;82.50;;;-151.14;100.00;62537.16;4959361;28;19922;-88
2023/06/18 06:59:52;;;;;;;;;;;18.90;82.60;;;-151.14;100.00;62537.16;4975352;28;19922;-88
2023/06/18 07:02:22;;;;;;;;;;;18.90;82.50;;;-151.14;100.00;62537.16;4958807;28;20124;-89
2023/06/18 07:04:50;;;;;;;;;;;18.90;82.40;;;-151.14;100.00;62537.16;4959271;28;19922;-89
2023/06/18 07:07:18;;;;;;;;;;;18.90;82.60;;;-151.14;100.00;62537.16;4959322;28;19922;-89
2023/06/18 07:09:46;;;;;;;;;;;18.90;82.90;;;-151.14;100.00;62537.16;4959131;28;20217;-89
2023/06/18 07:12:14;;;;;;;;;;;18.90;82.40;;;-151.14;100.00;62537.16;4958251;28;19922;-89
2023/06/18 07:14:42;;;;;;;;;;;18.90;82.40;;;-151.14;100.00;62537.16;4975231;28;19944;-89
2023/06/18 07:17:10;;;;;;;;;;;18.90;82.80;;;18.12;100.00;62537.16;4959221;28;19928;-89
2023/06/18 07:19:39;;;;;;;;;;;18.90;82.60;;;18.12;100.00;62537.16;4959177;28;19929;-89
2023/06/18 07:22:07;;;;;;;;;;;18.90;82.70;;;-151.14;100.00;62537.16;4974592;28;19921;-88
2023/06/18 07:24:35;;;;;;;;;;;18.90;82.50;;;18.13;100.00;62537.16;4958948;28;19928;-89
2023/06/18 07:27:04;;;;;;;;;;;18.90;82.70;;;-151.14;100.00;62537.16;4975017;28;20217;-89
2023/06/18 07:29:32;;;;;;;;;;;18.90;82.40;;;-151.14;100.00;62537.16;4975136;28;19928;-89
2023/06/18 07:32:00;;;;;;;;;;;18.90;82.50;;;39.25;100.00;62537.16;4974572;28;19922;-89
2023/06/18 07:34:30;;;;;;;;;;;18.90;82.60;;;-151.14;100.00;62537.16;4979815;28;20266;-89
2023/06/18 07:36:59;;;;;;;;;;;18.90;82.80;;;-151.14;100.00;62537.16;4975193;28;19944;-89
2023/06/18 07:39:27;;;;;;;;;;;18.90;82.60;;;-151.14;100.00;62537.16;4975229;28;20091;-90
2023/06/18 07:41:55;;;;;;;;;;;18.90;82.40;;;-151.14;100.00;62537.16;4975107;28;19928;-90
2023/06/18 07:44:23;;;;;;;;;;;18.90;82.80;;;18.15;100.00;62537.16;4975152;28;19922;-90
2023/06/18 07:46:51;;;;;;;;;;;18.90;82.60;;;39.25;100.00;62537.16;4991311;28;19932;-89
2023/06/18 07:49:21;;;;;;;;;;;18.90;82.80;;;-151.14;100.00;62537.16;4975185;28;19922;-89
2023/06/18 07:51:49;;;;;;;;;;;18.90;82.80;;;39.25;100.00;62537.16;4974786;28;19922;-89
2023/06/18 07:54:18;;;;;;;;;;;18.90;83.20;;;39.25;100.00;62537.16;4991016;28;20209;-88
2023/06/18 07:56:46;;;;;;;;;;;18.90;82.50;;;-151.14;100.00;62537.16;4991320;28;19922;-89
2023/06/18 07:59:14;;;;;;;;;;;18.90;82.80;;;18.16;100.00;62537.16;4975110;28;19922;-89
2023/06/18 08:01:42;;;;;;;;;;;18.90;83.10;;;39.25;100.00;62537.16;4975103;28;19924;-89
2023/06/18 08:04:10;;;;;;;;;;;18.90;83.20;;;-151.14;100.00;62537.16;4974847;28;19928;-90
2023/06/18 08:06:38;;;;;;;;;;;18.90;82.90;;;-151.14;100.00;62537.16;4974823;28;19922;-89
2023/06/18 08:09:06;;;;;;;;;;;19.00;83.20;;;-151.14;100.00;62537.16;4974877;28;19929;-90
2023/06/18 08:11:35;;;;;;;;;;;18.90;83.30;;;-151.14;100.00;62537.16;4974843;28;19929;-90
2023/06/18 08:14:04;;;;;;;;;;;19.00;83.30;;;-151.14;100.00;62537.16;4974740;28;19936;-89
2023/06/18 08:16:32;;;;;;;;;;;19.00;83.00;;;18.08;100.00;62537.16;4974836;28;19928;-89
2023/06/18 08:19:00;;;;;;;;;;;19.00;82.80;;;-151.14;100.00;62537.16;4974732;28;19922;-89
2023/06/18 08:21:28;;;;;;;;;;;19.00;82.60;;;39.25;100.00;62537.16;4991155;28;19928;-89
2023/06/18 08:23:56;;;;;;;;;;;19.00;82.90;;;-151.14;100.00;62537.16;4974787;28;19922;-89
2023/06/18 08:26:24;;;;;;;;;;;19.00;82.80;;;-151.14;100.00;62537.16;4977938;28;19955;-89
2023/06/18 08:28:53;;;;;;;;;;;19.00;82.90;;;-151.14;100.00;62537.16;4978034;28;20121;-89
2023/06/18 08:31:22;;;;;;;;;;;19.00;82.60;;;18.19;100.00;62537.16;4977950;28;19943;-89
2023/06/18 08:33:50;;;;;;;;;;;19.00;82.90;;;-151.14;100.00;62537.16;4977755;28;19922;-89
2023/06/18 08:36:19;;;;;;;;;;;19.00;82.80;;;39.25;100.00;62537.16;4977926;28;19922;-89
2023/06/18 08:38:47;;;;;;;;;;;19.00;82.80;;;-151.14;100.00;62537.16;4977890;28;19922;-88
2023/06/18 08:41:15;;;;;;;;;;;19.00;82.60;;;-151.14;100.00;62537.16;4977696;28;19929;-90
2023/06/18 08:43:43;;;;;;;;;;;19.00;82.40;;;-151.14;100.00;62537.16;4977635;28;20240;-89
2023/06/18 08:46:13;;;;;;;;;;;19.00;82.40;;;-151.14;100.00;62537.16;4977699;28;19922;-89
2023/06/18 08:48:43;;;;;;;;;;;19.00;82.40;;;18.21;100.00;62537.16;4977573;28;19922;-89
2023/06/18 08:51:12;;;;;;;;;;;19.00;82.20;;;-151.14;100.00;62537.16;4977811;28;19928;-89
2023/06/18 08:53:42;;;;;;;;;;;19.00;82.40;;;20.72;100.00;62537.16;4993826;28;19922;-89
2023/06/18 08:56:10;;;;;;;;;;;19.00;82.80;;;-151.14;100.00;62537.16;4977346;28;19928;-89
2023/06/18 08:58:41;;;;;;;;;;;19.00;82.80;;;-151.14;100.00;62537.16;4977545;28;19928;-89
2023/06/18 09:01:09;;;;;;;;;;;19.00;82.70;;;-151.14;100.00;62537.16;4977349;28;20239;-89
2023/06/18 09:03:39;;;;;;;;;;;19.00;82.90;;;-151.14;100.00;62537.16;4977744;28;19922;-89
2023/06/18 09:06:08;;;;;;;;;;;19.00;82.80;;;18.21;100.00;62537.16;4993624;28;19989;-89
2023/06/18 09:08:37;;;;;;;;;;;19.00;82.90;;;39.25;100.00;62537.16;4977474;28;19922;-89
2023/06/18 09:11:05;;;;;;;;;;;19.00;83.10;;;39.25;100.00;62537.16;4977425;28;19962;-89
2023/06/18 09:13:33;;;;;;;;;;;19.00;83.30;;;-151.14;100.00;62537.16;4977335;28;20239;-89
2023/06/18 09:16:02;;;;;;;;;;;19.00;83.40;;;-151.14;100.00;62537.16;4977206;28;19928;-89
2023/06/18 09:18:30;;;;;;;;;;;19.00;82.60;;;-151.14;100.00;62537.16;4977209;28;19948;-89
2023/06/18 09:21:00;;;;;;;;;;;19.00;83.60;;;-151.14;100.00;62537.16;4977199;28;19921;-89
2023/06/18 09:23:28;;;;;;;;;;;19.00;82.80;;;39.25;100.00;62537.16;4977221;28;19922;-90
2023/06/18 09:25:56;;;;;;;;;;;18.90;82.80;;;-151.14;100.00;62537.16;4977055;28;19928;-89
2023/06/18 09:28:25;;;;;;;;;;;19.00;83.20;;;39.25;100.00;62537.16;4976988;28;19922;-89
2023/06/18 09:30:54;;;;;;;;;;;18.90;82.80;;;60.43;100.00;62537.16;4977033;28;19928;-89
2023/06/18 09:33:29;;;;;;;;;;;18.90;82.70;;;-151.14;100.00;62537.16;4977136;28;19922;-89
2023/06/18 09:36:02;;;;;;;;;;;19.00;83.10;;;-151.14;100.00;62537.16;4976871;28;19921;-89
2023/06/18 09:38:35;;;;;;;;;;;18.90;83.40;;;-151.14;100.00;62537.16;4976825;28;19921;-89
2023/06/18 09:41:03;;;;;;;;;;;18.90;83.00;;;39.25;100.00;62537.16;4993280;28;19922;-89
2023/06/18 09:43:35;;;;;;;;;;;19.00;83.00;;;-151.14;100.00;62537.16;4976703;28;19944;-89
2023/06/18 09:46:05;;;;;;;;;;;19.00;83.10;;;-151.14;100.00;62537.16;4976837;28;19921;-89
2023/06/18 09:48:35;;;;;;;;;;;19.00;83.30;;;39.25;100.00;62537.16;4976825;28;19922;-89
2023/06/18 09:51:05;;;;;;;;;;;19.00;83.20;;;-151.14;100.00;62537.16;4993233;28;20099;-89
2023/06/18 09:53:33;;;;;;;;;;;19.00;82.90;;;39.25;100.00;62537.16;4976685;28;19928;-89
2023/06/18 09:56:11;;;;;;;;;;;19.00;82.90;;;39.25;100.00;62537.16;4976533;28;19921;-89
2023/06/18 09:58:41;;;;;;;;;;;19.00;83.20;;;39.25;100.00;62537.16;4976639;28;20116;-89
2023/06/18 10:01:09;;;;;;;;;;;19.00;83.20;;;-151.14;100.00;62537.16;4976696;28;20213;-89
2023/06/18 10:03:37;;;;;;;;;;;19.00;83.10;;;-151.14;100.00;62537.16;4976569;28;20120;-89
2023/06/18 10:06:20;;;;;;;;;;;19.00;83.20;;;39.25;100.00;62537.16;4976525;28;19928;-89
2023/06/18 10:08:49;;;;;;;;;;;19.00;83.20;;;-151.14;100.00;62537.16;4976454;28;20240;-89
2023/06/18 10:11:17;;;;;;;;;;;19.00;82.50;;;18.08;100.00;62537.16;4976431;28;19932;-90
2023/06/18 10:13:47;;;;;;;;;;;19.00;82.20;;;-151.14;100.00;62537.16;4976379;28;19922;-89
2023/06/18 10:16:17;;;;;;;;;;;19.00;81.90;;;-151.14;100.00;62537.16;4976388;28;19922;-89
2023/06/18 10:18:56;;;;;;;;;;;19.00;81.70;;;18.26;100.00;62537.16;4976256;28;19928;-89
2023/06/18 10:21:26;;;;;;;;;;;19.00;81.50;;;-151.14;100.00;62537.16;4976342;28;19928;-89
2023/06/18 10:23:56;;;;;;;;;;;19.00;81.60;;;-151.14;100.00;62537.16;4992477;28;19976;-89
2023/06/18 10:26:25;;;;;;;;;;;19.10;81.60;;;18.29;100.00;62537.16;4976387;28;19929;-89
2023/06/18 10:28:53;;;;;;;;;;;19.10;82.10;;;18.30;100.00;62537.16;4976137;28;19922;-91
2023/06/18 10:31:21;;;;;;;;;;;19.10;81.80;;;-151.14;100.00;62537.16;4976261;28;19928;-89
2023/06/18 10:33:49;;;;;;;;;;;19.10;81.80;;;18.31;100.00;62537.16;4975879;28;20231;-89
2023/06/18 10:36:17;;;;;;;;;;;19.10;81.70;;;-151.14;100.00;62537.16;4960353;28;19922;-89
2023/06/18 10:38:46;;;;;;;;;;;19.10;81.80;;;-151.14;100.00;62537.16;4959839;28;19928;-90
2023/06/18 10:41:18;;;;;;;;;;;19.10;81.60;;;18.32;100.00;62537.16;4959985;28;19930;-89
2023/06/18 10:43:49;;;;;;;;;;;19.10;81.60;;;-151.14;100.00;62537.16;4959976;28;19921;-89
2023/06/18 10:46:17;;;;;;;;;;;19.10;81.50;;;-151.14;100.00;62537.16;4959804;28;19922;-89
2023/06/18 10:49:12;;;;;;;;;;;19.10;81.30;;;-151.14;100.00;62537.16;4959366;28;20113;-89
2023/06/18 10:51:41;;;;;;;;;;;19.10;81.30;;;-151.14;100.00;62537.16;4959828;28;19925;-89
2023/06/18 10:54:23;;;;;;;;;;;19.20;81.20;;;39.25;100.00;62537.16;4975991;28;20094;-89
2023/06/18 10:56:52;;;;;;;;;;;19.10;81.00;;;28.66;100.00;62537.16;4959843;28;20206;-89
2023/06/18 10:59:36;;;;;;;;;;;19.20;80.90;;;-151.14;100.00;62537.16;4959803;28;19921;-89
2023/06/18 11:02:05;;;;;;;;;;;19.20;80.80;;;-151.14;100.00;62537.16;4959750;28;20206;-90
2023/06/18 11:04:33;;;;;;;;;;;19.20;80.80;;;18.08;100.00;62537.16;4959599;28;19929;-89
2023/06/18 11:07:15;;;;;;;;;;;19.20;80.70;;;60.43;100.00;62537.16;4975760;28;19922;-89
2023/06/18 11:09:52;;;;;;;;;;;19.20;80.70;;;39.25;100.00;62537.16;4975861;28;19928;-89
2023/06/18 11:12:21;;;;;;;;;;;19.20;80.70;;;28.66;100.00;62537.16;4959457;28;19922;-90